Time;durP1;ratioP1;P1;durP2;ratioP2;P2;SDS_P1;SDS_P2;PMS_P1;PMS_P2;Temp;Humidity;BMP_temperature;BMP_pressure;BME280_temperature;BME280_humidity;BME280_pressure;Samples;Min_cycle;Max_cycle;Signal;HPM_P1;HPM_P2
2022/01/21 00:01:17;;;;;;;15.10;6.88;;;22.60;34.70;;;;;;6065843;28;80328;-72
2022/01/21 00:04:17;;;;;;;15.15;6.85;;;22.70;34.70;;;;;;6049557;28;83010;-73
2022/01/21 00:07:18;;;;;;;14.30;7.05;;;22.60;34.60;;;;;;6071657;28;81161;-73
2022/01/21 00:10:19;;;;;;;11.70;6.40;;;22.60;34.60;;;;;;6072122;28;81460;-73
2022/01/21 00:13:34;;;;;;;13.10;6.20;;;22.60;34.60;;;;;;6059586;28;81068;-73
2022/01/21 00:16:37;;;;;;;13.25;6.65;;;22.60;34.60;;;;;;6078762;28;81736;-74
2022/01/21 00:19:41;;;;;;;13.70;5.43;;;22.60;34.70;;;;;;6068618;28;80785;-73
2022/01/21 00:32:40;;;;;;;11.23;5.22;;;22.60;35.00;;;;;;6067623;28;81256;-73
2022/01/21 00:35:40;;;;;;;10.27;5.30;;;22.60;35.10;;;;;;6064629;28;81526;-72
2022/01/21 00:38:42;;;;;;;8.73;4.85;;;22.60;35.20;;;;;;6061375;28;81482;-72
2022/01/21 00:41:56;;;;;;;10.55;4.22;;;22.60;35.30;;;;;;6058843;28;83216;-72
2022/01/21 00:45:00;;;;;;;9.68;4.55;;;22.60;35.40;;;;;;6071304;28;83139;-71
2022/01/21 00:48:00;;;;;;;10.55;4.55;;;22.60;35.50;;;;;;6055257;28;80551;-71
2022/01/21 00:51:01;;;;;;;8.32;4.05;;;22.60;35.60;;;;;;6064364;28;81645;-71
2022/01/21 00:54:01;;;;;;;8.52;4.60;;;22.60;35.60;;;;;;6077804;28;80454;-71
2022/01/21 00:57:02;;;;;;;6.85;3.63;;;22.60;35.60;;;;;;6083931;28;81049;-72
2022/01/21 01:00:02;;;;;;;7.72;3.88;;;22.60;35.60;;;;;;6073532;28;80653;-72
2022/01/21 01:03:03;;;;;;;7.65;3.60;;;22.60;35.60;;;;;;6058728;28;83612;-72
2022/01/21 01:06:03;;;;;;;5.63;3.10;;;22.60;35.60;;;;;;6066509;28;80874;-71
2022/01/21 01:09:04;;;;;;;9.77;4.03;;;22.60;35.60;;;;;;6066442;28;80756;-71
2022/01/21 01:22:04;;;;;;;5.68;3.25;;;22.50;35.50;;;;;;6037974;28;87782;-71
2022/01/21 01:28:23;;;;;;;5.07;2.55;;;22.50;35.50;;;;;;6060639;28;83335;-71
2022/01/21 01:31:24;;;;;;;5.65;2.97;;;22.50;35.40;;;;;;6047374;28;83530;-71
2022/01/21 01:34:24;;;;;;;4.35;2.97;;;22.50;35.40;;;;;;6041093;28;80536;-72
2022/01/21 01:41:05;;;;;;;6.82;3.17;;;22.50;35.10;;;;;;6051231;28;81551;-71
2022/01/21 01:50:44;;;;;;;4.03;2.20;;;22.50;34.80;;;;;;6081241;28;80707;-71
2022/01/21 01:53:45;;;;;;;4.47;2.45;;;22.50;34.70;;;;;;6078239;28;83201;-71
2022/01/21 01:56:45;;;;;;;4.85;2.35;;;22.50;34.70;;;;;;6067494;28;80716;-71
2022/01/21 01:59:46;;;;;;;4.80;2.17;;;22.50;34.60;;;;;;6058489;28;83318;-71
2022/01/21 02:02:46;;;;;;;3.75;2.30;;;22.50;34.50;;;;;;6034110;28;82868;-71
2022/01/21 02:05:47;;;;;;;5.38;2.20;;;22.50;34.50;;;;;;6063233;28;80768;-71
2022/01/21 02:08:47;;;;;;;4.30;2.47;;;22.50;35.00;;;;;;6065942;28;81561;-72
2022/01/21 02:11:48;;;;;;;4.85;2.35;;;22.50;34.40;;;;;;6060121;28;80461;-71
2022/01/21 02:14:51;;;;;;;3.22;2.05;;;22.50;34.30;;;;;;6051601;28;81667;-71
2022/01/21 02:24:45;;;;;;;6.00;2.15;;;22.50;34.30;;;;;;6068895;28;80682;-71
2022/01/21 02:27:45;;;;;;;3.80;2.00;;;22.50;34.20;;;;;;6054288;28;80546;-71
2022/01/21 02:30:46;;;;;;;2.65;1.63;;;22.50;34.20;;;;;;6055405;28;81537;-71
2022/01/21 02:33:47;;;;;;;4.47;2.42;;;22.50;34.10;;;;;;6060118;28;83402;-71
2022/01/21 02:36:47;;;;;;;2.88;1.63;;;22.50;34.10;;;;;;6037490;28;83572;-71
2022/01/21 02:39:48;;;;;;;3.97;2.00;;;22.50;34.20;;;;;;6065084;28;81817;-70
2022/01/21 02:42:49;;;;;;;5.57;2.28;;;22.40;34.00;;;;;;6060285;28;83823;-71
2022/01/21 02:45:49;;;;;;;4.43;1.98;;;22.50;34.00;;;;;;6061935;28;83254;-71
2022/01/21 02:48:50;;;;;;;2.13;1.65;;;22.50;34.10;;;;;;6061268;28;83147;-72
2022/01/21 02:51:50;;;;;;;3.30;1.98;;;22.50;34.00;;;;;;6060364;28;81774;-71
2022/01/21 02:54:51;;;;;;;2.40;1.63;;;22.50;34.10;;;;;;6083925;28;80834;-71
2022/01/21 02:57:51;;;;;;;3.75;1.75;;;22.40;33.90;;;;;;6069840;28;81838;-70
2022/01/21 03:00:52;;;;;;;3.95;1.90;;;22.50;34.10;;;;;;6054916;28;82005;-70
2022/01/21 03:03:53;;;;;;;3.97;1.70;;;22.40;34.00;;;;;;6059411;28;82010;-71
2022/01/21 03:06:54;;;;;;;3.28;1.88;;;22.50;34.10;;;;;;6052542;28;81533;-70
2022/01/21 03:09:55;;;;;;;2.95;1.75;;;22.40;34.00;;;;;;6054598;28;89434;-70
2022/01/21 03:12:55;;;;;;;2.60;1.60;;;22.40;34.10;;;;;;6043694;28;83670;-71
2022/01/21 03:15:56;;;;;;;2.95;1.77;;;22.50;34.60;;;;;;6042710;28;83246;-71
2022/01/21 03:18:56;;;;;;;5.05;2.10;;;22.40;34.10;;;;;;6052376;28;83512;-70
2022/01/21 03:21:57;;;;;;;3.08;1.60;;;22.50;33.80;;;;;;6081815;28;81624;-70
2022/01/21 03:24:58;;;;;;;3.55;1.80;;;22.50;33.60;;;;;;6054516;28;83440;-71
2022/01/21 03:27:58;;;;;;;4.85;1.80;;;22.50;33.40;;;;;;6049184;28;81803;-70
2022/01/21 03:31:02;;;;;;;2.75;1.88;;;22.60;32.70;;;;;;6071586;28;82422;-71
2022/01/21 03:34:04;;;;;;;3.42;1.77;;;22.60;33.40;;;;;;6048977;28;83069;-71
2022/01/21 03:37:07;;;;;;;4.50;1.40;;;22.70;32.60;;;;;;6053910;28;83326;-71
2022/01/21 03:40:07;;;;;;;4.13;1.63;;;22.80;32.90;;;;;;6043344;28;81626;-71
2022/01/21 03:43:08;;;;;;;2.65;1.52;;;22.80;32.60;;;;;;6049030;28;83231;-71
2022/01/21 03:46:08;;;;;;;3.92;1.63;;;22.90;33.00;;;;;;6082748;28;83166;-71
2022/01/21 03:49:09;;;;;;;2.72;1.63;;;22.90;32.80;;;;;;6042804;28;81728;-71
2022/01/21 03:52:12;;;;;;;2.90;1.42;;;22.90;32.80;;;;;;6049728;28;83187;-71
2022/01/21 03:55:12;;;;;;;2.70;1.50;;;23.00;33.10;;;;;;6075911;28;80480;-71
2022/01/21 03:58:13;;;;;;;2.60;1.70;;;23.00;32.90;;;;;;6071359;28;83163;-71
2022/01/21 04:01:20;;;;;;;3.38;1.90;;;23.00;32.80;;;;;;6049134;28;83410;-72
2022/01/21 04:04:21;;;;;;;2.78;1.70;;;23.00;32.70;;;;;;6047039;28;83240;-71
2022/01/21 04:07:22;;;;;;;2.20;1.52;;;23.10;32.60;;;;;;6059434;28;83047;-72
2022/01/21 04:10:22;;;;;;;4.93;2.55;;;23.10;32.40;;;;;;6066034;28;82201;-72
2022/01/21 04:13:25;;;;;;;3.10;1.52;;;23.10;32.30;;;;;;6067266;28;82404;-72
2022/01/21 04:16:29;;;;;;;3.13;1.85;;;23.10;32.10;;;;;;6068144;28;81817;-72
2022/01/21 04:19:29;;;;;;;3.80;1.92;;;23.10;31.70;;;;;;6048514;28;82394;-72
2022/01/21 04:22:31;;;;;;;4.45;1.80;;;23.10;31.50;;;;;;6054133;28;82741;-71
2022/01/21 04:25:31;;;;;;;3.28;1.83;;;23.10;31.30;;;;;;6070582;28;82287;-72
2022/01/21 04:28:32;;;;;;;4.20;2.00;;;23.20;31.30;;;;;;6063663;28;82619;-72
2022/01/21 04:31:36;;;;;;;4.63;2.10;;;23.20;31.30;;;;;;6073645;28;82792;-72
2022/01/21 04:34:37;;;;;;;3.78;2.42;;;23.20;31.00;;;;;;6078126;28;82650;-73
2022/01/21 04:37:45;;;;;;;3.90;1.98;;;23.20;31.10;;;;;;6050519;28;81535;-72
2022/01/21 04:40:53;;;;;;;3.58;2.05;;;23.20;30.90;;;;;;6080385;28;82381;-72
2022/01/21 04:47:20;;;;;;;2.83;1.80;;;23.20;30.90;;;;;;6030497;28;83233;-71
2022/01/21 04:50:25;;;;;;;4.30;2.30;;;23.30;30.80;;;;;;6061787;28;83587;-73
2022/01/21 04:53:30;;;;;;;4.00;2.10;;;23.30;30.70;;;;;;6045379;28;82745;-74
2022/01/21 04:56:43;;;;;;;5.75;2.58;;;23.20;30.70;;;;;;6060117;28;81926;-73
2022/01/21 04:59:44;;;;;;;2.90;1.80;;;23.30;30.50;;;;;;6059646;28;81833;-73
2022/01/21 05:02:45;;;;;;;3.30;1.85;;;23.30;30.60;;;;;;6059309;28;82216;-71
2022/01/21 05:05:49;;;;;;;3.67;1.98;;;23.30;30.70;;;;;;6050154;28;82907;-74
2022/01/21 05:08:54;;;;;;;3.72;2.25;;;23.30;30.70;;;;;;6028757;28;83242;-69
2022/01/21 05:11:56;;;;;;;3.03;1.65;;;23.40;31.40;;;;;;6074863;28;83679;-69
2022/01/21 05:18:01;;;;;;;4.00;2.03;;;23.50;31.90;;;;;;6048490;28;81870;-72
2022/01/21 05:21:14;;;;;;;345.27;132.02;;;23.50;32.40;;;;;;6063315;28;83202;-71
2022/01/21 05:24:28;;;;;;;305.25;127.90;;;23.50;32.70;;;;;;6043802;28;85265;-71
2022/01/21 05:27:29;;;;;;;242.60;96.40;;;23.50;33.00;;;;;;6068445;28;88058;-73
2022/01/21 05:30:31;;;;;;;402.42;156.40;;;23.50;33.80;;;;;;6044908;28;87878;-74
2022/01/21 05:34:07;;;;;;;634.27;276.93;;;23.50;35.10;;;;;;6038397;28;88629;-73
2022/01/21 05:37:18;;;;;;;547.75;236.38;;;23.40;36.50;;;;;;6045578;28;88210;-73
2022/01/21 05:40:54;;;;;;;529.65;228.30;;;23.40;37.40;;;;;;5947547;29;85720;-71
2022/01/21 05:44:20;;;;;;;594.28;266.77;;;23.40;38.10;;;;;;6036058;28;85500;-72
2022/01/21 05:47:29;;;;;;;638.83;294.97;;;23.40;38.90;;;;;;6034993;28;89267;-72
2022/01/21 05:50:45;;;;;;;709.47;324.17;;;23.40;39.20;;;;;;6039517;28;88226;-69
2022/01/21 05:54:23;;;;;;;658.38;298.35;;;23.30;39.60;;;;;;6005966;28;86909;-71
2022/01/21 05:57:44;;;;;;;523.00;225.30;;;23.20;40.40;;;;;;6081330;28;86380;-74
2022/01/21 06:00:48;;;;;;;427.00;172.27;;;23.20;40.70;;;;;;6045990;28;88235;-71
2022/01/21 06:03:49;;;;;;;325.95;130.52;;;23.20;41.00;;;;;;6075211;28;88315;-72
2022/01/21 06:06:50;;;;;;;267.75;107.50;;;23.20;42.20;;;;;;6064202;28;92814;-70
2022/01/21 06:09:50;;;;;;;211.10;82.03;;;23.20;41.50;;;;;;6042083;28;88191;-76
2022/01/21 06:12:51;;;;;;;183.43;72.28;;;23.10;41.90;;;;;;6061607;28;88408;-73
2022/01/21 06:15:51;;;;;;;143.35;58.42;;;23.10;42.20;;;;;;6054106;28;86102;-68
2022/01/21 06:18:52;;;;;;;162.35;64.93;;;23.00;42.10;;;;;;6057898;28;83307;-70
2022/01/21 06:21:52;;;;;;;151.30;63.63;;;23.00;41.70;;;;;;6069206;28;83168;-72
2022/01/21 06:24:53;;;;;;;132.77;54.15;;;23.10;41.20;;;;;;6058208;28;83255;-73
2022/01/21 06:27:53;;;;;;;140.63;54.00;;;23.10;40.50;;;;;;6050652;28;84893;-71
2022/01/21 06:30:54;;;;;;;127.38;48.15;;;23.10;40.30;;;;;;6035778;28;83068;-73
2022/01/21 06:33:54;;;;;;;119.28;49.75;;;23.00;40.00;;;;;;6060956;28;83387;-72
2022/01/21 06:36:55;;;;;;;110.80;43.78;;;23.10;39.70;;;;;;6058948;28;87168;-70
2022/01/21 06:39:55;;;;;;;94.90;38.70;;;23.10;40.20;;;;;;6058898;28;84795;-69
2022/01/21 06:43:01;;;;;;;105.47;36.60;;;23.00;40.00;;;;;;6073101;28;83366;-70
2022/01/21 06:46:01;;;;;;;78.55;31.38;;;23.00;39.80;;;;;;6062446;28;83284;-72
2022/01/21 06:49:02;;;;;;;77.53;31.13;;;22.90;39.40;;;;;;6063659;28;83258;-73
2022/01/21 06:52:02;;;;;;;64.97;27.05;;;22.90;39.40;;;;;;6060480;28;83471;-66
2022/01/21 06:55:03;;;;;;;59.63;25.33;;;22.90;39.20;;;;;;6048105;28;83136;-68
2022/01/21 06:58:03;;;;;;;53.58;21.83;;;22.80;39.00;;;;;;6061352;28;83063;-66
2022/01/21 07:01:04;;;;;;;55.80;23.48;;;22.80;39.30;;;;;;6062263;28;82876;-67
2022/01/21 07:04:05;;;;;;;53.17;21.88;;;22.80;39.00;;;;;;6061978;28;83533;-68
2022/01/21 07:07:05;;;;;;;43.35;19.60;;;22.80;39.40;;;;;;6063335;28;83394;-69
2022/01/21 07:10:06;;;;;;;59.97;22.45;;;22.80;39.20;;;;;;6059558;28;85006;-68
2022/01/21 07:13:06;;;;;;;43.35;17.85;;;22.80;39.70;;;;;;6062949;28;83519;-69
2022/01/21 07:16:07;;;;;;;35.90;15.45;;;22.70;40.00;;;;;;6059696;28;84766;-68
2022/01/21 07:19:07;;;;;;;36.75;15.68;;;22.70;39.90;;;;;;6079032;28;84103;-67
2022/01/21 07:22:08;;;;;;;38.05;15.85;;;22.70;39.60;;;;;;6063447;28;83251;-69
2022/01/21 07:25:09;;;;;;;43.50;17.25;;;22.60;39.60;;;;;;6050852;28;83008;-67
2022/01/21 07:28:09;;;;;;;36.05;14.35;;;22.60;39.70;;;;;;6050180;28;84109;-68
2022/01/21 07:31:10;;;;;;;31.98;13.15;;;22.70;39.30;;;;;;6058216;28;83872;-65
2022/01/21 07:34:10;;;;;;;30.48;14.23;;;22.60;39.50;;;;;;6060005;28;83589;-64
2022/01/21 07:37:11;;;;;;;30.98;11.98;;;22.60;39.60;;;;;;6055084;28;82935;-66
2022/01/21 07:40:11;;;;;;;28.75;12.20;;;22.70;39.50;;;;;;6069362;28;84134;-66
2022/01/21 07:43:12;;;;;;;27.95;11.82;;;22.60;39.60;;;;;;6061569;28;83276;-67
2022/01/21 07:46:13;;;;;;;22.25;10.68;;;22.60;39.40;;;;;;6060659;28;83669;-68
2022/01/21 07:49:13;;;;;;;24.77;9.95;;;22.60;39.20;;;;;;6036502;28;82931;-68
2022/01/21 07:52:15;;;;;;;25.70;10.13;;;22.60;39.80;;;;;;6055653;28;82989;-68
2022/01/21 07:55:15;;;;;;;20.63;8.85;;;22.60;39.50;;;;;;6058145;28;83274;-68
2022/01/21 07:58:16;;;;;;;21.80;9.45;;;22.60;40.10;;;;;;6059051;28;82972;-69
2022/01/21 08:01:16;;;;;;;19.98;7.82;;;22.60;40.10;;;;;;6049538;28;80810;-66
2022/01/21 08:04:17;;;;;;;17.48;8.18;;;22.60;40.30;;;;;;6062010;28;80535;-68
2022/01/21 08:07:17;;;;;;;15.85;7.22;;;22.60;40.00;;;;;;6060870;28;80354;-67
2022/01/21 08:10:18;;;;;;;17.08;7.05;;;22.60;39.70;;;;;;6059457;28;81688;-68
2022/01/21 08:13:18;;;;;;;20.40;7.97;;;22.60;39.80;;;;;;6044586;28;82102;-72
2022/01/21 08:16:19;;;;;;;17.88;7.30;;;22.60;39.70;;;;;;6060333;28;81034;-69
2022/01/21 08:19:19;;;;;;;16.13;7.60;;;22.60;39.90;;;;;;6064188;28;80920;-68
2022/01/21 08:22:22;;;;;;;14.55;6.97;;;22.60;39.80;;;;;;6064062;28;80218;-66
2022/01/21 08:25:22;;;;;;;14.32;6.10;;;22.60;40.10;;;;;;6046367;28;80726;-68
2022/01/21 08:28:23;;;;;;;12.80;6.40;;;22.50;40.10;;;;;;6058969;28;80771;-69
2022/01/21 08:31:24;;;;;;;17.15;6.20;;;22.50;40.40;;;;;;6051234;28;80502;-67
2022/01/21 08:34:24;;;;;;;14.40;5.82;;;22.50;40.20;;;;;;6057962;28;80846;-68
2022/01/21 08:37:25;;;;;;;14.23;6.28;;;22.50;40.50;;;;;;6046153;28;84471;-67
2022/01/21 08:40:25;;;;;;;9.02;4.95;;;22.50;40.50;;;;;;6052757;28;80598;-69
2022/01/21 08:43:26;;;;;;;18.80;5.35;;;22.50;39.70;;;;;;6031897;28;81474;-69
2022/01/21 08:46:26;;;;;;;17.30;5.15;;;22.60;39.80;;;;;;6045588;28;80665;-68
2022/01/21 08:49:27;;;;;;;13.68;4.70;;;22.60;40.30;;;;;;6059843;28;81100;-71
2022/01/21 08:52:29;;;;;;;11.52;4.70;;;22.70;40.20;;;;;;6059079;28;82193;-70
2022/01/21 08:55:30;;;;;;;11.07;4.30;;;22.70;40.00;;;;;;6064408;28;80736;-69
2022/01/21 08:58:30;;;;;;;7.97;4.30;;;22.80;39.20;;;;;;6056854;28;80869;-71
2022/01/21 09:01:31;;;;;;;9.05;4.07;;;22.90;39.30;;;;;;6041590;28;83634;-69
2022/01/21 09:04:32;;;;;;;8.98;4.30;;;22.90;39.60;;;;;;6048077;28;80732;-70
2022/01/21 09:07:33;;;;;;;8.60;3.88;;;23.00;39.30;;;;;;6049789;28;80725;-71
2022/01/21 09:10:33;;;;;;;8.77;4.88;;;23.00;39.50;;;;;;6047716;28;80176;-68
2022/01/21 09:13:39;;;;;;;12.38;4.75;;;23.00;39.30;;;;;;6055871;28;80639;-67
2022/01/21 09:16:42;;;;;;;9.25;3.92;;;23.10;39.50;;;;;;6057515;28;86146;-68
2022/01/21 09:19:43;;;;;;;13.25;5.47;;;23.10;39.50;;;;;;6063174;28;80521;-69
2022/01/21 09:22:43;;;;;;;12.93;4.88;;;23.10;39.40;;;;;;6046811;28;83275;-69
2022/01/21 09:25:44;;;;;;;12.57;5.30;;;23.10;38.50;;;;;;6066704;28;80456;-66
2022/01/21 09:28:44;;;;;;;13.85;4.70;;;23.10;38.00;;;;;;6062870;28;82117;-70
2022/01/21 09:31:45;;;;;;;17.38;5.63;;;23.10;36.60;;;;;;6064770;28;80348;-68
2022/01/21 09:34:46;;;;;;;10.35;5.43;;;23.10;36.10;;;;;;6067955;28;81471;-72
2022/01/21 09:37:47;;;;;;;13.20;5.43;;;23.10;35.50;;;;;;6067711;28;80519;-65
2022/01/21 09:40:47;;;;;;;14.68;5.88;;;23.10;36.00;;;;;;6057310;28;82120;-69
2022/01/21 09:43:48;;;;;;;13.70;4.60;;;23.10;36.40;;;;;;6061958;28;80726;-66
2022/01/21 09:46:49;;;;;;;12.52;5.78;;;23.10;36.40;;;;;;6062181;28;80428;-69
2022/01/21 09:49:50;;;;;;;8.55;4.90;;;23.10;36.40;;;;;;6064590;28;81050;-70
2022/01/21 09:52:50;;;;;;;9.50;4.80;;;23.20;37.00;;;;;;6050280;28;80318;-69
2022/01/21 09:55:51;;;;;;;9.13;4.32;;;23.20;36.70;;;;;;6060885;28;80429;-66
2022/01/21 09:58:51;;;;;;;10.20;4.68;;;23.20;36.60;;;;;;6059728;28;81204;-67
2022/01/21 10:01:52;;;;;;;9.90;4.57;;;23.20;37.00;;;;;;6052953;28;80604;-68
2022/01/21 10:04:55;;;;;;;12.25;4.40;;;23.20;38.30;;;;;;6045164;28;80574;-68
2022/01/21 10:07:56;;;;;;;11.23;4.50;;;23.20;37.10;;;;;;6053162;28;80610;-70
2022/01/21 10:10:57;;;;;;;9.32;4.45;;;23.20;37.30;;;;;;6043318;28;82134;-69
2022/01/21 10:13:57;;;;;;;9.32;4.82;;;23.20;37.90;;;;;;6064664;28;80391;-69
2022/01/21 10:16:58;;;;;;;8.35;4.25;;;23.20;37.40;;;;;;6062066;28;80442;-71
2022/01/21 10:19:59;;;;;;;6.97;4.30;;;23.20;37.60;;;;;;6061974;28;80066;-67
2022/01/21 10:23:00;;;;;;;6.82;4.40;;;23.10;38.10;;;;;;6054807;28;85252;-68
2022/01/21 10:26:01;;;;;;;7.78;4.60;;;23.10;38.00;;;;;;6060017;28;80959;-68
2022/01/21 10:29:01;;;;;;;6.72;3.97;;;23.10;38.40;;;;;;6059809;28;81032;-67
2022/01/21 10:32:02;;;;;;;6.95;3.50;;;23.10;38.20;;;;;;6060492;28;80495;-68
2022/01/21 10:35:02;;;;;;;10.10;4.22;;;23.10;38.80;;;;;;6061426;28;80558;-67
2022/01/21 10:38:03;;;;;;;12.05;4.10;;;23.10;38.70;;;;;;6068244;28;80279;-66
2022/01/21 10:41:03;;;;;;;7.50;3.83;;;23.10;38.80;;;;;;6049343;28;80502;-66
2022/01/21 10:44:04;;;;;;;9.02;4.65;;;23.10;38.80;;;;;;6052252;28;80550;-68
2022/01/21 10:47:05;;;;;;;6.88;3.70;;;23.10;39.00;;;;;;6059354;28;80903;-67
2022/01/21 10:50:05;;;;;;;6.90;3.72;;;23.00;39.10;;;;;;6056910;28;81348;-65
2022/01/21 10:53:06;;;;;;;6.88;3.17;;;23.10;39.20;;;;;;6049827;28;81024;-67
2022/01/21 10:56:06;;;;;;;6.85;3.50;;;23.00;39.60;;;;;;6063602;28;81955;-66
2022/01/21 10:59:07;;;;;;;8.68;3.55;;;23.00;39.80;;;;;;6064666;28;80542;-67
2022/01/21 11:02:07;;;;;;;8.90;3.90;;;23.00;39.60;;;;;;6055005;28;80652;-65
2022/01/21 11:05:10;;;;;;;5.35;3.13;;;23.00;40.10;;;;;;6049557;28;85121;-66
2022/01/21 11:08:12;;;;;;;10.80;3.60;;;23.00;39.80;;;;;;6049346;28;80378;-66
2022/01/21 11:11:13;;;;;;;12.73;3.85;;;23.00;40.70;;;;;;6051973;28;81038;-67
2022/01/21 11:14:13;;;;;;;8.38;4.07;;;23.00;41.30;;;;;;6053195;28;81115;-65
2022/01/21 11:17:17;;;;;;;7.72;3.63;;;22.90;42.40;;;;;;6059530;28;80643;-65
2022/01/21 11:20:18;;;;;;;7.75;3.20;;;22.90;42.70;;;;;;6071693;28;81164;-64
2022/01/21 11:23:21;;;;;;;5.95;3.95;;;22.90;42.70;;;;;;6060899;28;80771;-64
2022/01/21 11:26:21;;;;;;;6.63;3.65;;;22.90;42.80;;;;;;6060377;28;81293;-65
2022/01/21 11:29:22;;;;;;;6.22;3.25;;;22.90;42.70;;;;;;6072101;28;80530;-63
2022/01/21 11:32:22;;;;;;;7.55;3.50;;;22.90;42.20;;;;;;6063958;28;81822;-64
2022/01/21 11:35:23;;;;;;;9.10;3.45;;;22.90;42.60;;;;;;6055839;28;81669;-63
2022/01/21 11:38:23;;;;;;;8.40;3.85;;;22.80;42.40;;;;;;6065971;28;80866;-65
2022/01/21 11:41:28;;;;;;;9.02;3.95;;;22.80;42.80;;;;;;6071140;28;80890;-65
2022/01/21 11:44:30;;;;;;;11.73;3.70;;;22.80;42.70;;;;;;6057463;28;80488;-65
2022/01/21 11:47:49;;;;;;;14.40;4.55;;;22.80;42.70;;;;;;6047957;28;83567;-64
2022/01/21 11:50:49;;;;;;;9.40;4.68;;;22.80;42.40;;;;;;6048645;28;80482;-67
2022/01/21 11:53:50;;;;;;;9.23;3.83;;;22.80;42.50;;;;;;6065184;28;80810;-66
2022/01/21 11:56:50;;;;;;;16.17;4.82;;;22.80;42.70;;;;;;6061685;28;80718;-68
2022/01/21 11:59:58;;;;;;;9.90;5.30;;;22.80;43.10;;;;;;6074376;28;80403;-64
2022/01/21 12:02:59;;;;;;;11.43;5.15;;;22.80;43.00;;;;;;6065339;28;80690;-64
2022/01/21 12:05:59;;;;;;;9.52;4.97;;;22.90;43.60;;;;;;6042549;28;81796;-66
2022/01/21 12:09:01;;;;;;;13.25;5.38;;;22.90;43.70;;;;;;6050108;28;80349;-67
2022/01/21 12:12:02;;;;;;;13.18;6.38;;;22.90;44.20;;;;;;6063775;28;81730;-65
2022/01/21 12:15:05;;;;;;;13.82;5.45;;;22.90;44.40;;;;;;6053625;28;81472;-68
2022/01/21 12:18:07;;;;;;;11.30;5.88;;;22.80;44.30;;;;;;6048677;28;82593;-70
2022/01/21 12:21:08;;;;;;;11.15;5.70;;;22.80;44.30;;;;;;6048307;28;81491;-69
2022/01/21 12:24:10;;;;;;;14.60;5.55;;;22.80;44.00;;;;;;6059036;28;80378;-68
2022/01/21 12:27:13;;;;;;;37.42;8.15;;;22.80;44.20;;;;;;6055000;28;82431;-67
2022/01/21 12:30:14;;;;;;;21.00;5.40;;;22.80;43.90;;;;;;6050815;28;81297;-67
2022/01/21 12:33:14;;;;;;;16.52;5.28;;;22.80;44.00;;;;;;6057906;28;80397;-67
2022/01/21 12:36:31;;;;;;;12.52;5.40;;;22.80;43.80;;;;;;6047396;28;83504;-67
2022/01/21 12:39:31;;;;;;;11.95;5.90;;;22.80;43.50;;;;;;6065077;28;81072;-67
2022/01/21 12:42:35;;;;;;;14.68;5.28;;;22.80;43.40;;;;;;6069649;28;83216;-67
2022/01/21 12:45:36;;;;;;;8.43;4.30;;;22.90;43.40;;;;;;6065665;28;80250;-68
2022/01/21 12:48:37;;;;;;;9.93;4.82;;;22.90;43.00;;;;;;6064480;28;80938;-66
2022/01/21 12:58:24;;;;;;;18.60;3.88;;;23.20;41.40;;;;;;6051158;28;82470;-69
2022/01/21 13:01:24;;;;;;;15.07;4.65;;;23.20;41.00;;;;;;6065290;28;82364;-68
2022/01/21 13:04:25;;;;;;;11.93;4.00;;;23.20;41.20;;;;;;6072595;28;80199;-70
2022/01/21 13:07:25;;;;;;;10.85;3.50;;;23.20;40.90;;;;;;6063074;28;82574;-65
2022/01/21 13:10:27;;;;;;;8.77;3.42;;;23.20;41.50;;;;;;6059678;28;80835;-67
2022/01/21 13:17:09;;;;;;;9.43;3.15;;;23.20;40.60;;;;;;6039420;28;81678;-70
2022/01/21 13:20:13;;;;;;;7.22;3.00;;;23.20;40.50;;;;;;6057443;28;80303;-68
2022/01/21 13:23:20;;;;;;;11.20;2.90;;;23.20;40.70;;;;;;6058354;28;81744;-68
2022/01/21 13:26:20;;;;;;;4.95;2.60;;;23.20;40.30;;;;;;6054307;28;81052;-66
2022/01/21 13:29:21;;;;;;;8.27;3.00;;;23.20;40.30;;;;;;6058389;28;81739;-68
2022/01/21 13:32:22;;;;;;;5.28;2.65;;;23.20;40.40;;;;;;6064271;28;81123;-66
2022/01/21 13:35:24;;;;;;;5.20;2.33;;;23.30;40.30;;;;;;6064627;28;81586;-70
2022/01/21 13:38:24;;;;;;;5.63;2.67;;;23.30;39.90;;;;;;6078418;28;80691;-68
2022/01/21 13:41:25;;;;;;;9.48;3.03;;;23.30;39.90;;;;;;6061577;28;80949;-69
2022/01/21 13:44:25;;;;;;;7.15;3.35;;;23.30;40.00;;;;;;6063630;28;80571;-67
2022/01/21 13:47:26;;;;;;;6.13;2.75;;;23.30;39.40;;;;;;6043648;28;82482;-69
2022/01/21 13:50:26;;;;;;;5.93;2.40;;;23.30;39.60;;;;;;6064665;28;81186;-70
2022/01/21 13:53:27;;;;;;;5.00;2.45;;;23.30;39.00;;;;;;6058566;28;80382;-70
2022/01/21 13:56:27;;;;;;;6.07;2.67;;;23.30;38.70;;;;;;6050591;28;82030;-69
2022/01/21 13:59:29;;;;;;;10.25;3.00;;;23.20;39.10;;;;;;6072554;28;80643;-71
2022/01/21 14:02:30;;;;;;;2.97;1.98;;;23.20;38.90;;;;;;6056817;28;80552;-73
2022/01/21 14:05:30;;;;;;;4.50;2.00;;;23.20;38.80;;;;;;6066153;28;81407;-71
2022/01/21 14:08:31;;;;;;;4.55;2.05;;;23.30;39.10;;;;;;6058610;28;80498;-69
2022/01/21 14:11:36;;;;;;;5.75;2.65;;;23.30;39.00;;;;;;6060240;28;80744;-71
2022/01/21 14:14:36;;;;;;;3.77;2.20;;;23.30;39.00;;;;;;6057473;28;80629;-70
2022/01/21 14:17:37;;;;;;;3.55;2.08;;;23.20;39.30;;;;;;6066102;28;80714;-68
2022/01/21 14:20:39;;;;;;;4.22;2.47;;;23.20;39.80;;;;;;6064729;28;80218;-70
2022/01/21 14:23:39;;;;;;;3.65;2.20;;;23.20;39.80;;;;;;6057839;28;80694;-69
2022/01/21 14:26:40;;;;;;;5.88;2.00;;;23.20;39.90;;;;;;6066278;28;81459;-66
2022/01/21 14:29:42;;;;;;;10.70;2.55;;;23.20;40.40;;;;;;6065818;28;80864;-66
2022/01/21 14:32:42;;;;;;;5.03;2.42;;;23.20;40.50;;;;;;6056797;28;81493;-67
2022/01/21 14:35:46;;;;;;;4.32;2.38;;;23.20;40.10;;;;;;6059056;28;80469;-69
2022/01/21 14:38:46;;;;;;;6.40;2.38;;;23.10;40.00;;;;;;6024500;28;80993;-70
2022/01/21 14:41:48;;;;;;;4.90;2.45;;;23.10;40.30;;;;;;6048955;28;80537;-68
2022/01/21 14:44:48;;;;;;;5.97;2.30;;;23.10;40.30;;;;;;6057697;28;80587;-69
2022/01/21 14:47:49;;;;;;;4.13;2.25;;;23.10;40.20;;;;;;6063318;28;81303;-69
2022/01/21 14:50:50;;;;;;;4.20;2.22;;;23.10;39.70;;;;;;6064873;28;80677;-69
2022/01/21 14:53:55;;;;;;;5.38;2.20;;;23.00;40.10;;;;;;6064366;28;82258;-69
2022/01/21 14:56:55;;;;;;;5.50;2.40;;;23.00;40.20;;;;;;6056515;28;81793;-68
2022/01/21 14:59:56;;;;;;;6.72;2.55;;;23.00;39.80;;;;;;6076698;28;81903;-68
2022/01/21 15:02:57;;;;;;;4.80;2.50;;;23.00;39.40;;;;;;6060993;28;81425;-68
2022/01/21 15:05:57;;;;;;;4.22;2.38;;;23.00;39.10;;;;;;6067212;28;80607;-69
2022/01/21 15:09:01;;;;;;;3.08;1.90;;;23.00;39.40;;;;;;6064039;28;83133;-68
2022/01/21 15:14:23;;;;;;;3.97;2.22;;;23.00;39.60;;;;;;6062334;28;81105;-70
2022/01/21 15:15:31;;;;;;;4.60;2.30;;;22.90;40.00;;;;;;6061780;28;80426;-69
2022/01/21 15:18:31;;;;;;;3.20;1.90;;;23.00;39.90;;;;;;6052988;28;82019;-70
2022/01/21 15:21:33;;;;;;;5.13;2.30;;;23.00;39.80;;;;;;6060229;28;80501;-68
2022/01/21 15:24:34;;;;;;;5.47;2.95;;;22.90;39.70;;;;;;6066897;28;80547;-67
2022/01/21 15:27:34;;;;;;;4.53;2.50;;;22.90;39.70;;;;;;6052342;28;80677;-67
2022/01/21 15:30:35;;;;;;;78.30;32.33;;;22.90;40.00;;;;;;6065023;28;82237;-67
2022/01/21 15:33:35;;;;;;;136.20;63.80;;;22.90;40.30;;;;;;6051539;28;83688;-68
2022/01/21 15:36:36;;;;;;;175.27;77.88;;;22.90;40.40;;;;;;6057962;28;83629;-69
2022/01/21 15:39:37;;;;;;;137.77;66.35;;;22.90;40.30;;;;;;6029941;28;85524;-68
2022/01/21 15:42:37;;;;;;;185.35;94.43;;;22.90;40.80;;;;;;6061410;28;85702;-69
2022/01/21 15:45:38;;;;;;;252.65;117.90;;;22.90;41.00;;;;;;6044392;28;83162;-68
2022/01/21 15:48:38;;;;;;;243.98;116.05;;;22.90;41.30;;;;;;6041370;28;85580;-69
2022/01/21 15:51:39;;;;;;;209.95;100.95;;;22.90;41.20;;;;;;6051498;28;85240;-69
2022/01/21 15:54:40;;;;;;;194.63;93.85;;;22.90;40.90;;;;;;6039820;28;86213;-69
2022/01/21 15:57:41;;;;;;;239.43;120.97;;;22.90;40.70;;;;;;6031457;28;88155;-69
2022/01/21 16:00:41;;;;;;;220.40;106.32;;;22.90;41.30;;;;;;6058940;28;85657;-69
2022/01/21 16:03:43;;;;;;;276.63;130.77;;;22.90;40.80;;;;;;6049769;28;87233;-70
2022/01/21 16:06:43;;;;;;;319.80;156.85;;;22.90;41.20;;;;;;6060092;28;85573;-68
2022/01/21 16:09:44;;;;;;;334.45;156.38;;;22.90;41.50;;;;;;6051832;28;86626;-68
2022/01/21 16:12:44;;;;;;;297.65;138.75;;;22.80;41.50;;;;;;6057347;28;86340;-67
2022/01/21 16:15:44;;;;;;;236.38;113.57;;;22.80;41.30;;;;;;6047087;28;85776;-68
2022/01/21 16:18:45;;;;;;;173.18;86.28;;;22.80;41.20;;;;;;6045161;28;85683;-68
2022/01/21 16:21:46;;;;;;;156.93;75.80;;;22.80;41.20;;;;;;6057692;28;85176;-68
2022/01/21 16:24:46;;;;;;;148.82;65.13;;;22.80;40.70;;;;;;6053981;28;84115;-67
2022/01/21 16:27:49;;;;;;;121.65;57.40;;;22.80;40.90;;;;;;6059839;28;83066;-65
2022/01/21 16:30:53;;;;;;;104.15;50.05;;;22.70;40.80;;;;;;6061364;28;83475;-65
2022/01/21 16:33:54;;;;;;;87.60;44.08;;;22.80;40.60;;;;;;6061728;28;83406;-65